Terminal Aerodrome Forecast
Issued by NWS

Home | Current Version | Previous Version | Text Only | Print | Product List | Glossary On
Versions: 1 2 3 4 5 6 7 8 9 10 11 12 13 14 15 16 17 18 19
000
FTUS46 KSTO 210000 CCA
TAFSMF
TAF COR
KSMF 210031Z 2100/2124 10005KT 6SM BR SCT010 OVC050
      TEMPO 2100/2103 3SM -RA BR BKN008 BKN020
     FM210600 VRB04KT 4SM BR OVC025
     FM211200 VRB02KT 1SM BR OVC010
     FM212100 21003KT P6SM OVC250=

USA.gov is the U.S. government's official web portal to all federal, state and local government web resources and services.